createdAt,value
2022-10-28T00:03:24.961Z,101314.48
2022-10-28T00:08:28.356Z,101306.27
2022-10-28T00:13:31.308Z,101299.31
2022-10-28T00:18:34.183Z,101299.52
2022-10-28T00:23:36.827Z,101298.19
2022-10-28T00:28:50.631Z,101294.95
2022-10-28T00:33:53.905Z,101284.23
2022-10-28T00:38:56.971Z,101283.38
2022-10-28T00:44:04.057Z,101279.79
2022-10-28T00:49:19.964Z,101275.54
2022-10-28T00:54:23.467Z,101272.14
2022-10-28T00:59:36.730Z,101269.03
2022-10-28T01:04:39.827Z,101272.09
2022-10-28T01:09:42.856Z,101267.16
2022-10-28T01:15:04.396Z,101266.22
2022-10-28T01:20:37.892Z,101258.66
2022-10-28T01:25:49.742Z,101252.41
2022-10-28T01:31:26.530Z,101246.81
2022-10-28T01:36:48.071Z,101248.86
2022-10-28T01:41:54.752Z,101241.70
2022-10-28T01:46:57.227Z,101234.11
2022-10-28T01:52:04.959Z,101230.90
2022-10-28T01:57:09.286Z,101225.05
2022-10-28T02:02:11.879Z,101225.11
2022-10-28T02:07:16.654Z,101223.09
2022-10-28T02:12:23.960Z,101229.44
2022-10-28T02:17:32.043Z,101226.76
2022-10-28T02:22:51.834Z,101216.90
2022-10-28T02:28:07.699Z,101208.17
2022-10-28T02:33:14.895Z,101205.94
2022-10-28T02:38:40.532Z,101207.02
2022-10-28T02:43:45.869Z,101214.70
2022-10-28T02:48:53.177Z,101208.14
2022-10-28T02:54:08.289Z,101203.39
2022-10-28T02:59:13.057Z,101205.94
2022-10-28T03:04:15.654Z,101207.33
2022-10-28T03:09:18.331Z,101203.49
2022-10-28T03:14:21.031Z,101197.80
2022-10-28T03:19:23.923Z,101193.20
2022-10-28T03:24:26.633Z,101193.99
2022-10-28T03:29:29.330Z,101192.56
2022-10-28T03:34:31.932Z,101194.16
2022-10-28T03:39:34.567Z,101189.00
2022-10-28T03:44:37.180Z,101186.41
2022-10-28T03:49:39.818Z,101182.60
2022-10-28T03:54:42.521Z,101178.07
2022-10-28T03:59:45.105Z,101180.31
2022-10-28T04:04:47.739Z,101179.30
2022-10-28T04:09:51.562Z,101180.94
2022-10-28T04:14:54.178Z,101175.70
2022-10-28T04:19:56.830Z,101168.64
2022-10-28T04:24:59.506Z,101161.00
2022-10-28T04:30:02.436Z,101150.59
2022-10-28T04:35:05.689Z,101150.03
2022-10-28T04:40:09.834Z,101148.92
2022-10-28T04:45:12.575Z,101143.54
2022-10-28T04:50:15.378Z,101131.48
2022-10-28T04:55:18.165Z,101125.72
2022-10-28T05:00:20.953Z,101123.11
2022-10-28T05:05:23.595Z,101121.33
2022-10-28T05:10:26.480Z,101121.25
2022-10-28T05:15:31.325Z,101117.98
2022-10-28T05:20:34.437Z,101108.80
2022-10-28T05:25:37.146Z,101104.17
2022-10-28T05:30:39.789Z,101100.59
2022-10-28T05:35:42.532Z,101096.73
2022-10-28T05:40:45.171Z,101100.11
2022-10-28T05:45:58.078Z,101092.25
2022-10-28T05:51:00.775Z,101088.08
2022-10-28T05:56:03.542Z,101074.56
2022-10-28T06:01:07.387Z,101072.16
2022-10-28T06:06:10.057Z,101068.80
2022-10-28T06:11:11.449Z,101069.48
2022-10-28T06:16:14.147Z,101071.38
2022-10-28T06:21:17.023Z,101068.02
2022-10-28T06:26:20.066Z,101065.19
2022-10-28T06:31:22.904Z,101065.23
2022-10-28T06:36:25.563Z,101077.09
2022-10-28T06:41:28.223Z,101081.19
2022-10-28T06:46:31.310Z,101069.67
2022-10-28T06:51:35.738Z,101062.42
2022-10-28T06:56:38.875Z,101071.60
2022-10-28T07:01:41.666Z,101073.52
2022-10-28T07:06:49.844Z,101073.20
2022-10-28T07:11:55.685Z,101073.44
2022-10-28T07:17:00.130Z,101074.73
2022-10-28T07:22:03.020Z,101074.95
2022-10-28T07:27:06.162Z,101071.52
2022-10-28T07:32:08.939Z,101061.22
2022-10-28T07:37:12.865Z,101059.61
2022-10-28T07:42:15.930Z,101059.99
2022-10-28T07:47:19.677Z,101066.14
2022-10-28T07:52:22.477Z,101072.90
2022-10-28T07:57:25.175Z,101065.20
2022-10-28T08:02:27.814Z,101054.24
2022-10-28T08:07:34.821Z,101049.43
2022-10-28T08:12:40.540Z,101042.16
2022-10-28T08:17:43.181Z,101036.18
2022-10-28T08:22:45.899Z,101032.17
2022-10-28T08:27:50.478Z,101024.39
2022-10-28T08:33:02.314Z,101025.84
2022-10-28T08:38:07.638Z,101023.00
2022-10-28T08:43:52.880Z,101027.14
2022-10-28T08:49:09.519Z,101019.30
2022-10-28T08:54:20.578Z,101022.46
2022-10-28T08:59:31.933Z,101018.52
2022-10-28T09:04:43.597Z,101012.36
2022-10-28T09:10:20.625Z,101010.16
2022-10-28T09:15:34.649Z,101015.27
2022-10-28T09:20:52.153Z,101011.01
2022-10-28T09:25:57.762Z,101015.08
2022-10-28T09:31:17.876Z,101011.48
2022-10-28T09:36:30.812Z,101005.61
2022-10-28T09:41:44.210Z,101005.46
2022-10-28T09:46:51.442Z,101001.23
2022-10-28T09:52:05.482Z,100995.55
2022-10-28T09:57:09.775Z,100985.92
2022-10-28T10:02:40.401Z,100979.20
2022-10-28T10:07:55.047Z,100973.08
2022-10-28T10:13:02.794Z,100965.33
2022-10-28T10:18:07.435Z,100971.00
2022-10-28T10:23:23.160Z,100968.20
2022-10-28T10:28:27.712Z,100945.80
2022-10-28T10:33:54.347Z,100947.66
2022-10-28T10:39:22.979Z,100947.27
2022-10-28T10:44:33.446Z,100941.77
2022-10-28T10:49:36.639Z,100932.69
2022-10-28T10:54:40.276Z,100933.73
2022-10-28T10:59:48.489Z,100932.14
2022-10-28T11:04:53.726Z,100921.83
2022-10-28T11:09:56.332Z,100908.20
2022-10-28T11:15:16.605Z,100901.89
2022-10-28T11:20:25.721Z,100896.73
2022-10-28T11:25:50.620Z,100891.59
2022-10-28T11:31:29.554Z,100885.58
2022-10-28T11:36:45.610Z,100886.02
2022-10-28T11:42:10.039Z,100875.86
2022-10-28T11:47:28.331Z,100881.66
2022-10-28T11:52:57.489Z,100887.33
2022-10-28T11:58:09.148Z,100896.98
2022-10-28T12:03:33.570Z,100907.73
2022-10-28T12:09:10.522Z,100907.66
2022-10-28T12:14:22.892Z,100901.61
2022-10-28T12:19:59.674Z,100894.33
2022-10-28T12:25:09.967Z,100876.50
2022-10-28T12:30:22.208Z,100866.60
2022-10-28T12:35:31.781Z,100878.04
2022-10-28T12:40:50.450Z,100880.86
2022-10-28T12:45:56.471Z,100868.63
2022-10-28T12:51:25.514Z,100876.48
2022-10-28T12:56:38.092Z,100887.23
2022-10-28T13:01:43.738Z,100882.45
2022-10-28T13:07:07.933Z,100880.23
2022-10-28T13:12:17.390Z,100877.78
2022-10-28T13:17:46.784Z,100854.16
2022-10-28T13:22:54.461Z,100838.08
2022-10-28T13:28:01.135Z,100818.50
2022-10-28T13:33:06.328Z,100812.24
2022-10-28T13:38:12.758Z,100807.68
2022-10-28T13:43:50.120Z,100809.81
2022-10-28T13:48:53.084Z,100803.72
2022-10-28T13:53:57.021Z,100799.56
2022-10-28T13:59:25.209Z,100805.30
2022-10-28T14:04:39.359Z,100796.38
2022-10-28T14:10:22.416Z,100795.88
2022-10-28T14:15:30.720Z,100789.41
2022-10-28T14:20:40.694Z,100776.84
2022-10-28T14:25:46.307Z,100775.65
2022-10-28T14:31:11.598Z,100774.55
2022-10-28T14:36:17.590Z,100773.11
2022-10-28T14:41:34.201Z,100762.12
2022-10-28T14:47:07.743Z,100754.35
2022-10-28T14:52:20.349Z,100754.29
2022-10-28T14:57:32.654Z,100753.83
2022-10-28T15:02:38.333Z,100754.56
2022-10-28T15:07:42.045Z,100754.13
2022-10-28T15:12:49.081Z,100748.17
2022-10-28T15:17:52.535Z,100748.36
2022-10-28T15:23:21.797Z,100766.69
2022-10-28T15:28:24.614Z,100773.82
2022-10-28T15:33:36.529Z,100765.17
2022-10-28T15:38:52.920Z,100777.06
2022-10-28T15:44:03.640Z,100781.28
2022-10-28T15:49:06.253Z,100785.73
2022-10-28T15:54:20.687Z,100779.74
2022-10-28T15:59:25.544Z,100797.16
2022-10-28T16:04:42.834Z,100800.11
2022-10-28T16:09:48.508Z,100795.52
2022-10-28T16:14:59.332Z,100778.98
2022-10-28T16:20:30.032Z,100760.69
2022-10-28T16:25:32.772Z,100762.77
2022-10-28T16:30:35.394Z,100759.48
2022-10-28T16:35:38.001Z,100759.23
2022-10-28T16:40:56.597Z,100754.90
2022-10-28T16:46:17.294Z,100747.63
2022-10-28T16:51:20.094Z,100734.88
2022-10-28T16:56:23.202Z,100737.25
2022-10-28T17:01:26.013Z,100732.09
2022-10-28T17:06:28.760Z,100732.05
2022-10-28T17:16:42.404Z,100729.42
2022-10-28T17:21:46.191Z,100730.03
2022-10-28T17:26:49.278Z,100730.89
2022-10-28T17:31:52.168Z,100739.92
2022-10-28T17:37:12.721Z,100739.46
2022-10-28T17:42:33.058Z,100731.91
2022-10-28T17:47:53.557Z,100730.87
2022-10-28T17:53:14.805Z,100730.44
2022-10-28T17:58:17.508Z,100729.59
2022-10-28T18:03:20.119Z,100729.98
2022-10-28T18:08:43.037Z,100725.07
2022-10-28T18:14:04.698Z,100715.04
2022-10-28T18:19:07.692Z,100704.19
2022-10-28T18:24:10.757Z,100693.53
2022-10-28T18:29:13.636Z,100687.71
2022-10-28T18:34:34.456Z,100677.45
2022-10-28T18:39:38.211Z,100686.92
2022-10-28T18:44:41.486Z,100688.72
2022-10-28T18:49:45.743Z,100680.80
2022-10-28T18:54:48.466Z,100672.94
2022-10-28T19:05:34.585Z,100671.94
2022-10-28T19:10:37.202Z,100667.27
2022-10-28T19:15:47.040Z,100661.27
2022-10-28T19:21:11.802Z,100656.27
2022-10-28T19:26:33.605Z,100654.64
2022-10-28T19:31:53.889Z,100646.15
2022-10-28T19:36:56.512Z,100636.83
2022-10-28T19:41:59.199Z,100624.42
2022-10-28T19:47:02.114Z,100626.16
2022-10-28T19:52:04.901Z,100627.73
2022-10-28T19:57:07.529Z,100628.77
2022-10-28T20:02:11.722Z,100628.59
2022-10-28T20:07:14.621Z,100627.92
2022-10-28T20:12:34.657Z,100622.55
2022-10-28T20:17:37.283Z,100619.91
2022-10-28T20:22:42.330Z,100620.70
2022-10-28T20:27:45.413Z,100616.94
2022-10-28T20:32:51.866Z,100611.63
2022-10-28T20:37:57.903Z,100608.89
2022-10-28T20:43:00.921Z,100601.55
2022-10-28T20:48:03.926Z,100602.39
2022-10-28T20:53:06.663Z,100603.42
2022-10-28T20:58:09.265Z,100604.39
2022-10-28T21:03:12.057Z,100601.96
2022-10-28T21:08:14.969Z,100598.34
2022-10-28T21:13:35.403Z,100598.77
2022-10-28T21:18:56.469Z,100594.52
2022-10-28T21:23:59.231Z,100590.61
2022-10-28T21:29:01.845Z,100584.27
2022-10-28T21:34:21.895Z,100581.42
2022-10-28T21:39:24.497Z,100573.61
2022-10-28T21:44:27.125Z,100571.27
2022-10-28T21:49:29.742Z,100571.98
2022-10-28T21:54:34.058Z,100569.54
2022-10-28T21:59:36.756Z,100574.47
2022-10-28T22:04:39.763Z,100569.79
2022-10-28T22:09:42.461Z,100566.20
2022-10-28T22:15:02.773Z,100556.39
2022-10-28T22:20:07.629Z,100554.98
2022-10-28T22:25:10.788Z,100550.83
2022-10-28T22:30:14.289Z,100549.80
2022-10-28T22:35:16.951Z,100546.34
2022-10-28T22:40:19.554Z,100544.95
2022-10-28T22:45:39.956Z,100539.08
2022-10-28T22:50:42.756Z,100535.55
2022-10-28T22:56:03.867Z,100535.48
2022-10-28T23:01:06.992Z,100530.86
2022-10-28T23:06:11.214Z,100528.35
2022-10-28T23:11:15.154Z,100525.05
2022-10-28T23:16:17.959Z,100518.70
2022-10-28T23:21:38.682Z,100518.98
2022-10-28T23:26:42.381Z,100513.44
2022-10-28T23:31:44.987Z,100512.81
2022-10-28T23:36:50.162Z,100510.77
2022-10-28T23:41:52.855Z,100507.74
2022-10-28T23:46:55.470Z,100506.95
2022-10-28T23:51:58.126Z,100511.08
2022-10-28T23:57:00.812Z,100510.32
